LRBC/BCM METAR and TAF weather

Enter ICAO airport designator
Station Type Date Time Source
LRBC METAR 2021/10/20 07:30 UTC NOAA

LRBC 200730Z 16003KT 120V200 CAVOK 10/05 Q1026


Station Type Date Time Source
LRBC Decoded METAR 2021/10/20 07:30 UTC NOAA

Bacau, Romania (LRBC) 46-35N 026-58E 190M
Oct 20, 2021 - 03:30 AM EDT / 2021.10.20 0730 UTC
Wind: from the SSE (160 degrees) at 3 MPH (3 KT) (direction variable):0
Visibility: greater than 7 mile(s):0
Temperature: 50 F (10 C)
Dew Point: 41 F (5 C)
Relative Humidity: 71%
Pressure (altimeter): 30.30 in. Hg (1026 hPa)
ob: LRBC 200730Z 16003KT 120V200 CAVOK 10/05 Q1026
cycle: 7

Station Type Date Time Source
LRBC TAF 2010/08/31 20:30 UTC NOAA

TAF LRBC 312030Z 3121/0203 CNL

Example: see airport list